Portada
METAR-TAF:

METAR-TAF

Aeroports :

Aeroport de Cherif Al Idrissi

Al Hoceima, Marroc

latitud: 35-11N, longitud: 003-51W, altitud: 27 m

Observació

L'informe es va fer fa 25 minuts, a les 17:00 UTC
Vent 8 kt del Nord-Oest
Temperatura 19°C
Humitat 49%
Pressió 1020 hPa
Visibilitat 10 km o més
sense núvols per sota de 1500 mi sense presència de cumulonimbus.

METAR: GMTA 261700Z 32008KT CAVOK 19/08 Q1020 NOSIG

Hora: 18:25 (17:25 UTC)

Pronòstic

L'informe es va fer fa 6 hores i 25 minuts, a les 11:00 UTC
Pronòstic vàlid del 26 a les 12 UTC al 27 a les 18 UTC
Vent 13 kt del Nord/Nord-Oest
Visibilitat 10 km o més
sense núvols per sota de 1500 mi sense presència de cumulonimbus.

TAF: GMTA 261100Z 2612/2718 33013KT CAVOK

Observacions i pronòstics meteorològics de més de 4000 aeroports (METAR i TAF).

Les estacions disponibles són els punts grocs i vermells al mapa.

Posi el ratolí al punt desitjat per veure el nom de l'estació.

Feu clic per veure les observacions i els pronòstics meteorològics.

Per canviar el mapa: feu clic els botons verds amb una creu de color negre per apropar; al botó verd amb un guió per allunyar la imatge; o en les fletxes verdes per a mapes adjacents.


METAR-TAF: